All
Toowoomba Hospital Airport (Harristown, QLD) YXTO Weather
There is no TAF data available at YXTO. Showing TAF data for YTWB (3 mi NW).
TWB Terminal Area Forecast (no data for YXTO)
| Date | Time (AEST) | Flight Rules | Wind Dir. | Speed | Type | Height AGL (ft) | Visibility | Remarks | ||||||
|---|---|---|---|---|---|---|---|---|---|---|---|---|---|---|
| 08-May | 11:00PM | VFR | 240° | 14 kt | Clouds and Visibility are OK | >= 6 miles | ||||||||
| 08-May | 10:00PM | VFR | 240° | 14 kt | Clouds and Visibility are OK | >= 6 miles | ||||||||
| 08-May | 09:00PM | VFR | 240° | 14 kt | Clouds and Visibility are OK | >= 6 miles | ||||||||
| 08-May | 08:00PM | VFR | 240° | 14 kt | Clouds and Visibility are OK | >= 6 miles | ||||||||
| 08-May | 07:00PM | VFR | 240° | 14 kt | Clouds and Visibility are OK | >= 6 miles | ||||||||
| 08-May | 06:00PM | VFR | 240° | 14 kt | Clouds and Visibility are OK | >= 6 miles | ||||||||
| 08-May | 05:00PM | VFR | 240° | 14 kt | Clouds and Visibility are OK | >= 6 miles | ||||||||
| 08-May | 04:00PM | VFR | 240° | 14 kt | Clouds and Visibility are OK | >= 6 miles | ||||||||
| 08-May | 03:00PM | VFR | 240° | 14 kt | Clouds and Visibility are OK | >= 6 miles | ||||||||
| 08-May | 02:00PM | VFR | 240° | 14 kt | Clouds and Visibility are OK | >= 6 miles | ||||||||
There is no METAR data available at YXTO. Showing METAR data for YTWB (3 mi NW).
Recent TWB METAR history (no data for YXTO)
| Date | Time (AEST) | Flight Rules | Wind Dir. | Speed | Type | Height AGL (ft) | Visibility | Temp (°C) | Temp (°F) | Dew Point (°C) | Dew Point (°F) | Rel. Humid. | Pressure | Density Altitude | Remarks |
|---|---|---|---|---|---|---|---|---|---|---|---|---|---|---|---|
| 08-May | 02:00PM | VFR | 250° | 12 kt | 10000 meters | 18° | 64° | -1° | 30° | 28% | 1020 mb | 2,721 ft | |||
| 08-May | 01:00PM | VFR | 240° | 13 kt | 10000 meters | 17° | 62° | -1° | 30° | 29% | 1020 mb | 2,601 ft | |||
| 08-May | 12:00PM | VFR | 220° | 12 kt | 10000 meters | 15° | 59° | -2° | 28° | 31% | 1021 mb | 2,331 ft | |||
| 08-May | 11:00AM | VFR | 240° | 10 kt | 10000 meters | 13° | 55° | -3° | 26° | 33% | 1022 mb | 2,062 ft | |||
| 08-May | 10:00AM | VFR | 250° | 9 kt | 10000 meters | 11° | 51° | -2° | 28° | 40% | 1023 mb | 1,792 ft | |||
| 08-May | 09:00AM | VFR | 260° | 7 kt | 10000 meters | 9° | 48° | -3° | 26° | 43% | 1023 mb | 1,552 ft | |||
| 08-May | 08:00AM | VFR | 250° | 9 kt | 10000 meters | 7° | 44° | -2° | 28° | 53% | 1022 mb | 1,342 ft | |||
| 08-May | 07:00AM | VFR | 230° | 9 kt | 10000 meters | 5° | 41° | -3° | 26° | 56% | 1022 mb | 1,102 ft | |||
| 08-May | 06:00AM | VFR | 240° | 8 kt | 10000 meters | 5° | 41° | -3° | 26° | 56% | 1021 mb | 1,131 ft | |||
| 08-May | 05:00AM | VFR | 230° | 8 kt | 10000 meters | 5° | 41° | -3° | 26° | 56% | 1021 mb | 1,131 ft | |||
| 08-May | 04:00AM | VFR | 230° | 15 kt | 10000 meters | 5° | 41° | -3° | 26° | 56% | 1020 mb | 1,161 ft | |||
| 08-May | 03:00AM | VFR | 250° | 8 kt | 10000 meters | 5° | 41° | -3° | 26° | 56% | 1021 mb | 1,131 ft | |||
| 08-May | 02:00AM | VFR | 230° | 9 kt | 10000 meters | 6° | 42° | -2° | 28° | 56% | 1021 mb | 1,251 ft | |||
| 08-May | 01:00AM | VFR | 230° | 12 kt | 10000 meters | 7° | 44° | -1° | 30° | 57% | 1020 mb | 1,401 ft | |||
| 08-May | 12:00AM | VFR | 230° | 13 kt | 10000 meters | 8° | 46° | 2° | 35° | 66% | 1021 mb | 1,491 ft | |||
| 07-May | 11:00PM | VFR | 230° | 14 kt | 10000 meters | 9° | 48° | 4° | 39° | 71% | 1020 mb | 1,641 ft | |||
| 07-May | 10:02PM | VFR | 240° | 17 kt | 10000 meters | 11° | 51° | 5° | 41° | 66% | 1020 mb | 1,881 ft | Wind gusting to 28 KT | ||
| 07-May | 09:00PM | VFR | 250° | 13 kt | 10000 meters | 12° | 53° | 5° | 41° | 62% | 1020 mb | 2,001 ft | |||
| 07-May | 08:00PM | VFR | 260° | 13 kt | 10000 meters | 13° | 55° | 4° | 39° | 54% | 1020 mb | 2,121 ft | |||
| 07-May | 07:00PM | VFR | 260° | 12 kt | 10000 meters | 13° | 55° | 4° | 39° | 54% | 1020 mb | 2,121 ft | |||
| 07-May | 06:00PM | VFR | 260° | 12 kt | 10000 meters | 15° | 59° | 5° | 41° | 51% | 1019 mb | 2,390 ft | |||
| 07-May | 05:00PM | VFR | 260° | 15 kt | 10000 meters | 17° | 62° | 4° | 39° | 42% | 1018 mb | 2,660 ft | |||
| 07-May | 04:00PM | VFR | 270° | 15 kt | 10000 meters | 18° | 64° | 3° | 37° | 37% | 1018 mb | 2,780 ft | |||
| 07-May | 03:00PM | VFR | 270° | 16 kt | 10000 meters | 19° | 66° | 3° | 37° | 34% | 1018 mb | 2,900 ft |
Login
| Your browser is unsupported. upgrade your browser |
